createdAt,value
2023-03-19T00:01:14.821Z,8.00
2023-03-19T00:03:43.377Z,7.38
2023-03-19T00:06:13.160Z,7.50
2023-03-19T00:08:43.076Z,7.95
2023-03-19T00:11:16.986Z,7.25
2023-03-19T00:13:46.594Z,6.80
2023-03-19T00:16:14.985Z,6.75
2023-03-19T00:18:43.282Z,7.03
2023-03-19T00:21:11.712Z,6.50
2023-03-19T00:23:45.798Z,6.65
2023-03-19T00:26:17.507Z,6.57
2023-03-19T00:28:46.052Z,6.35
2023-03-19T00:31:20.491Z,6.05
2023-03-19T00:33:48.859Z,6.10
2023-03-19T00:36:18.424Z,6.85
2023-03-19T00:38:49.088Z,7.25
2023-03-19T00:41:19.029Z,6.57
2023-03-19T00:43:47.394Z,6.53
2023-03-19T00:46:15.890Z,6.55
2023-03-19T00:48:47.879Z,6.47
2023-03-19T00:51:19.663Z,6.43
2023-03-19T00:53:50.266Z,6.63
2023-03-19T00:56:20.084Z,5.85
2023-03-19T00:58:48.632Z,6.13
2023-03-19T01:01:19.880Z,6.78
2023-03-19T01:03:52.217Z,6.75
2023-03-19T01:06:20.649Z,6.90
2023-03-19T01:08:51.517Z,8.15
2023-03-19T01:11:22.636Z,9.05
2023-03-19T01:13:52.495Z,8.38
2023-03-19T01:16:20.812Z,8.13
2023-03-19T01:18:49.079Z,8.48
2023-03-19T01:21:17.796Z,8.10
2023-03-19T01:23:48.559Z,7.35
2023-03-19T01:26:19.722Z,7.22
2023-03-19T01:28:48.290Z,6.30
2023-03-19T01:31:17.523Z,6.50
2023-03-19T01:33:46.493Z,6.60
2023-03-19T01:36:17.746Z,5.93
2023-03-19T01:38:47.006Z,5.38
2023-03-19T01:41:15.340Z,5.65
2023-03-19T01:43:44.857Z,6.40
2023-03-19T01:46:23.462Z,6.03
2023-03-19T01:48:53.718Z,5.68
2023-03-19T01:51:28.617Z,6.32
2023-03-19T01:54:01.118Z,6.32
2023-03-19T01:56:33.861Z,5.85
2023-03-19T01:59:08.647Z,5.35
2023-03-19T02:01:45.166Z,5.15
2023-03-19T02:04:14.404Z,6.05
2023-03-19T02:06:43.468Z,5.88
2023-03-19T02:09:15.188Z,5.20
2023-03-19T02:11:43.660Z,5.38
2023-03-19T02:14:13.470Z,5.75
2023-03-19T02:16:42.172Z,6.03
2023-03-19T02:19:21.545Z,5.85
2023-03-19T02:21:50.757Z,5.78
2023-03-19T02:24:24.297Z,5.90
2023-03-19T02:27:01.704Z,5.47
2023-03-19T02:29:31.128Z,6.07
2023-03-19T02:32:02.645Z,6.32
2023-03-19T02:34:40.301Z,5.78
2023-03-19T02:37:17.500Z,5.60
2023-03-19T02:39:55.776Z,6.10
2023-03-19T02:42:28.810Z,6.80
2023-03-19T02:47:27.552Z,5.50
2023-03-19T02:49:56.126Z,6.03
2023-03-19T02:52:24.511Z,5.97
2023-03-19T02:54:54.303Z,5.75
2023-03-19T02:57:23.716Z,5.95
2023-03-19T02:59:54.193Z,5.80
2023-03-19T03:02:22.884Z,4.60
2023-03-19T03:04:53.580Z,5.18
2023-03-19T03:07:22.247Z,4.63
2023-03-19T03:09:51.127Z,4.78
2023-03-19T03:12:19.454Z,5.10
2023-03-19T03:14:48.452Z,4.93
2023-03-19T03:17:19.398Z,4.68
2023-03-19T03:19:48.621Z,4.50
2023-03-19T03:22:21.215Z,4.82
2023-03-19T03:24:49.742Z,4.40
2023-03-19T03:27:17.935Z,4.90
2023-03-19T03:29:47.834Z,5.10
2023-03-19T03:32:16.793Z,4.85
2023-03-19T03:34:48.378Z,4.95
2023-03-19T03:37:17.446Z,5.75
2023-03-19T03:39:46.441Z,4.10
2023-03-19T03:42:15.280Z,4.72
2023-03-19T03:44:44.660Z,4.68
2023-03-19T03:47:16.430Z,5.03
2023-03-19T03:49:45.102Z,4.55
2023-03-19T03:52:14.677Z,4.80
2023-03-19T03:54:43.639Z,4.78
2023-03-19T03:57:12.317Z,4.65
2023-03-19T03:59:40.592Z,4.40
2023-03-19T04:02:15.359Z,4.82
2023-03-19T04:04:44.072Z,4.35
2023-03-19T04:07:14.152Z,4.82
2023-03-19T04:09:44.252Z,4.97
2023-03-19T04:12:12.642Z,4.38
2023-03-19T04:14:41.082Z,4.50
2023-03-19T04:17:09.466Z,5.22
2023-03-19T04:19:37.916Z,5.13
2023-03-19T04:22:08.134Z,5.28
2023-03-19T04:24:36.415Z,5.47
2023-03-19T04:27:06.383Z,4.75
2023-03-19T04:29:35.444Z,5.05
2023-03-19T04:32:03.794Z,4.90
2023-03-19T04:34:32.346Z,4.85
2023-03-19T04:37:01.005Z,5.45
2023-03-19T04:39:29.756Z,4.65
2023-03-19T04:41:58.851Z,5.28
2023-03-19T04:44:31.074Z,4.63
2023-03-19T04:46:59.864Z,5.03
2023-03-19T04:49:31.051Z,4.85
2023-03-19T04:52:00.856Z,4.45
2023-03-19T04:54:34.605Z,4.95
2023-03-19T04:57:04.406Z,5.45
2023-03-19T04:59:34.525Z,4.50
2023-03-19T05:02:03.331Z,4.93
2023-03-19T05:04:33.214Z,3.95
2023-03-19T05:07:01.906Z,4.82
2023-03-19T05:09:31.998Z,4.70
2023-03-19T05:12:03.139Z,4.57
2023-03-19T05:14:35.917Z,4.88
2023-03-19T05:17:06.078Z,4.53
2023-03-19T05:19:34.936Z,5.03
2023-03-19T05:22:04.418Z,5.07
2023-03-19T05:24:32.818Z,4.75
2023-03-19T05:27:01.348Z,4.32
2023-03-19T05:29:29.975Z,4.28
2023-03-19T05:32:03.450Z,4.75
2023-03-19T05:34:38.354Z,5.25
2023-03-19T05:37:07.653Z,4.63
2023-03-19T05:39:39.311Z,4.55
2023-03-19T05:42:11.152Z,4.45
2023-03-19T05:44:40.536Z,5.07
2023-03-19T05:47:13.203Z,4.68
2023-03-19T05:49:43.106Z,4.55
2023-03-19T05:52:14.620Z,5.20
2023-03-19T05:54:44.513Z,5.10
2023-03-19T05:57:12.889Z,5.15
2023-03-19T05:59:42.269Z,4.55
2023-03-19T06:02:13.278Z,4.85
2023-03-19T06:04:45.615Z,4.72
2023-03-19T06:07:16.486Z,4.30
2023-03-19T06:09:45.805Z,4.50
2023-03-19T06:12:14.150Z,4.72
2023-03-19T06:14:50.067Z,4.50
2023-03-19T06:17:22.007Z,4.65
2023-03-19T06:19:56.243Z,5.22
2023-03-19T06:22:24.604Z,5.00
2023-03-19T06:24:52.776Z,5.63
2023-03-19T06:27:21.061Z,4.40
2023-03-19T06:29:49.299Z,5.28
2023-03-19T06:32:17.786Z,5.30
2023-03-19T06:34:47.009Z,5.60
2023-03-19T06:37:17.015Z,5.10
2023-03-19T06:39:45.803Z,5.57
2023-03-19T06:42:14.162Z,4.93
2023-03-19T06:44:44.828Z,4.47
2023-03-19T06:47:14.298Z,4.80
2023-03-19T06:49:42.586Z,4.80
2023-03-19T06:52:13.207Z,5.18
2023-03-19T06:54:42.960Z,5.28
2023-03-19T06:57:12.410Z,4.90
2023-03-19T06:59:40.836Z,5.13
2023-03-19T07:02:12.252Z,5.85
2023-03-19T07:04:41.057Z,5.07
2023-03-19T07:07:11.676Z,4.60
2023-03-19T07:09:42.323Z,5.22
2023-03-19T07:12:11.183Z,5.40
2023-03-19T07:14:40.023Z,5.35
2023-03-19T07:17:10.330Z,4.95
2023-03-19T07:19:39.818Z,4.72
2023-03-19T07:22:08.147Z,5.75
2023-03-19T07:24:36.599Z,5.13
2023-03-19T07:27:07.509Z,6.00
2023-03-19T07:29:36.416Z,5.25
2023-03-19T07:32:05.611Z,5.28
2023-03-19T07:34:34.171Z,5.18
2023-03-19T07:37:04.058Z,5.20
2023-03-19T07:39:33.409Z,5.10
2023-03-19T07:42:01.908Z,5.43
2023-03-19T07:44:31.761Z,5.28
2023-03-19T07:47:00.046Z,5.35
2023-03-19T07:49:29.455Z,4.78
2023-03-19T07:52:00.597Z,5.25
2023-03-19T07:54:29.014Z,5.50
2023-03-19T07:56:58.340Z,5.10
2023-03-19T07:59:26.736Z,5.20
2023-03-19T08:01:59.086Z,5.13
2023-03-19T08:04:27.629Z,5.55
2023-03-19T08:06:56.435Z,5.22
2023-03-19T08:09:24.792Z,5.05
2023-03-19T08:11:54.815Z,4.80
2023-03-19T08:14:23.375Z,4.70
2023-03-19T08:16:53.074Z,4.40
2023-03-19T08:19:25.146Z,5.30
2023-03-19T08:21:53.345Z,6.10
2023-03-19T08:24:23.156Z,5.35
2023-03-19T08:26:56.361Z,4.70
2023-03-19T08:29:26.481Z,4.68
2023-03-19T08:31:56.489Z,4.53
2023-03-19T08:34:28.324Z,4.30
2023-03-19T08:36:56.600Z,4.20
2023-03-19T08:39:25.537Z,4.05
2023-03-19T08:41:55.584Z,3.53
2023-03-19T08:44:23.927Z,3.80
2023-03-19T08:46:52.296Z,3.58
2023-03-19T08:49:20.901Z,2.78
2023-03-19T08:51:50.685Z,3.25
2023-03-19T08:54:22.084Z,3.60
2023-03-19T08:56:51.343Z,3.13
2023-03-19T08:59:20.533Z,2.90
2023-03-19T09:01:53.183Z,3.25
2023-03-19T09:04:21.948Z,3.17
2023-03-19T09:06:56.979Z,3.53
2023-03-19T09:09:26.114Z,3.42
2023-03-19T09:11:54.347Z,3.30
2023-03-19T09:14:24.903Z,2.42
2023-03-19T09:16:53.585Z,2.78
2023-03-19T09:19:24.390Z,2.53
2023-03-19T09:21:56.157Z,3.35
2023-03-19T09:24:31.834Z,2.70
2023-03-19T09:27:04.850Z,2.70
2023-03-19T09:32:04.954Z,3.10
2023-03-19T09:34:33.984Z,3.38
2023-03-19T09:37:03.843Z,3.10
2023-03-19T09:39:33.789Z,2.83
2023-03-19T09:42:22.340Z,3.03
2023-03-19T09:44:54.473Z,2.70
2023-03-19T09:47:29.663Z,2.95
2023-03-19T09:50:00.342Z,2.75
2023-03-19T09:52:46.172Z,2.28
2023-03-19T09:55:38.048Z,2.30
2023-03-19T09:58:16.620Z,2.30
2023-03-19T10:00:50.324Z,2.40
2023-03-19T10:03:47.951Z,2.47
2023-03-19T10:06:45.053Z,2.30
2023-03-19T10:09:32.488Z,2.15
2023-03-19T10:12:17.568Z,2.60
2023-03-19T10:15:05.681Z,2.65
2023-03-19T10:17:38.201Z,2.95
2023-03-19T10:20:13.338Z,2.15
2023-03-19T10:22:47.507Z,2.30
2023-03-19T10:25:22.176Z,2.08
2023-03-19T10:28:00.970Z,2.22
2023-03-19T10:30:35.046Z,2.00
2023-03-19T10:33:16.825Z,2.15
2023-03-19T10:35:49.527Z,2.38
2023-03-19T10:38:29.269Z,2.83
2023-03-19T10:41:12.596Z,2.22
2023-03-19T10:46:15.768Z,2.40
2023-03-19T10:48:48.515Z,2.17
2023-03-19T10:51:22.089Z,2.30
2023-03-19T10:53:52.732Z,2.17
2023-03-19T10:56:25.339Z,1.90
2023-03-19T10:59:05.942Z,2.38
2023-03-19T11:01:36.535Z,1.98
2023-03-19T11:04:15.996Z,2.08
2023-03-19T11:06:51.044Z,2.50
2023-03-19T11:09:30.547Z,2.30
2023-03-19T11:12:21.688Z,2.58
2023-03-19T11:14:50.789Z,1.95
2023-03-19T11:17:24.064Z,2.00
2023-03-19T11:19:57.743Z,2.00
2023-03-19T11:22:29.447Z,2.28
2023-03-19T11:25:01.247Z,2.00
2023-03-19T11:27:32.599Z,1.90
2023-03-19T11:30:03.332Z,1.92
2023-03-19T11:33:09.950Z,2.20
2023-03-19T11:35:50.186Z,1.80
2023-03-19T11:38:30.965Z,1.70
2023-03-19T11:41:16.728Z,2.65
2023-03-19T11:43:54.894Z,1.80
2023-03-19T11:46:36.564Z,2.15
2023-03-19T11:49:39.077Z,1.60
2023-03-19T11:52:21.812Z,1.80
2023-03-19T11:55:08.165Z,2.20
2023-03-19T11:57:56.706Z,2.03
2023-03-19T12:00:33.837Z,1.90
2023-03-19T12:03:32.104Z,2.25
2023-03-19T12:06:09.445Z,2.22
2023-03-19T12:08:47.080Z,2.17
2023-03-19T12:11:25.852Z,2.17
2023-03-19T12:14:10.709Z,2.30
2023-03-19T12:16:59.137Z,2.10
2023-03-19T12:19:40.665Z,2.03
2023-03-19T12:22:19.383Z,1.90
2023-03-19T12:25:10.314Z,2.00
2023-03-19T12:27:46.195Z,2.22
2023-03-19T12:30:20.341Z,2.05
2023-03-19T12:33:12.033Z,2.05
2023-03-19T12:35:44.920Z,2.03
2023-03-19T12:38:19.945Z,2.00
2023-03-19T12:40:55.515Z,2.10
2023-03-19T12:43:30.891Z,2.50
2023-03-19T12:46:06.260Z,1.90
2023-03-19T12:48:45.508Z,2.20
2023-03-19T12:51:19.023Z,3.13
2023-03-19T12:53:50.242Z,1.80
2023-03-19T12:56:32.961Z,2.10
2023-03-19T12:59:11.194Z,1.98
2023-03-19T13:01:44.855Z,2.10
2023-03-19T13:04:20.104Z,1.83
2023-03-19T13:06:58.440Z,1.80
2023-03-19T13:09:32.966Z,1.30
2023-03-19T13:12:07.937Z,1.63
2023-03-19T13:14:46.560Z,1.13
2023-03-19T13:17:29.616Z,1.38
2023-03-19T13:20:01.411Z,1.58
2023-03-19T13:22:34.058Z,1.50
2023-03-19T13:25:07.668Z,1.73
2023-03-19T13:27:42.071Z,2.25
2023-03-19T13:30:22.454Z,2.70
2023-03-19T13:32:54.767Z,2.45
2023-03-19T13:35:36.615Z,2.47
2023-03-19T13:38:21.322Z,3.58
2023-03-19T13:40:52.473Z,3.35
2023-03-19T13:43:39.924Z,8.77
2023-03-19T13:46:36.901Z,3.85
2023-03-19T13:49:25.294Z,2.90
2023-03-19T13:52:01.350Z,2.40
2023-03-19T13:54:39.534Z,2.00
2023-03-19T13:57:21.578Z,1.95
2023-03-19T13:59:56.142Z,2.20
2023-03-19T14:02:48.766Z,2.30
2023-03-19T14:05:22.640Z,2.80
2023-03-19T14:07:56.468Z,1.80
2023-03-19T14:10:28.875Z,2.03
2023-03-19T14:13:07.080Z,1.42
2023-03-19T14:15:36.471Z,1.40
2023-03-19T14:18:08.109Z,2.20
2023-03-19T14:20:48.203Z,2.35
2023-03-19T14:23:36.187Z,1.45
2023-03-19T14:26:16.705Z,1.83
2023-03-19T14:29:03.457Z,1.55
2023-03-19T14:31:45.961Z,1.20
2023-03-19T14:34:22.584Z,1.48
2023-03-19T14:36:59.483Z,1.02
2023-03-19T14:39:31.380Z,0.70
2023-03-19T14:42:05.855Z,1.45
2023-03-19T14:45:06.552Z,1.30
2023-03-19T14:47:59.903Z,1.10
2023-03-19T14:50:40.403Z,1.45
2023-03-19T14:53:17.379Z,0.82
2023-03-19T14:55:52.735Z,1.50
2023-03-19T14:58:22.210Z,1.20
2023-03-19T15:00:55.291Z,1.10
2023-03-19T15:03:31.355Z,1.40
2023-03-19T15:06:04.682Z,1.30
2023-03-19T15:08:36.180Z,1.65
2023-03-19T15:11:32.112Z,1.00
2023-03-19T15:14:17.625Z,0.75
2023-03-19T15:16:54.319Z,0.80
2023-03-19T15:19:27.477Z,0.43
2023-03-19T15:22:09.072Z,0.50
2023-03-19T15:24:38.446Z,0.50
2023-03-19T15:27:22.414Z,0.47
2023-03-19T15:29:51.739Z,0.50
2023-03-19T15:33:03.005Z,0.30
2023-03-19T15:35:24.798Z,0.40
2023-03-19T15:37:58.964Z,0.70
2023-03-19T15:40:31.238Z,0.60
2023-03-19T15:43:04.280Z,0.55
2023-03-19T15:45:35.278Z,0.63
2023-03-19T15:48:08.205Z,0.52
2023-03-19T15:50:45.659Z,0.98
2023-03-19T15:53:17.511Z,0.68
2023-03-19T15:55:48.217Z,0.77
2023-03-19T15:58:24.668Z,0.80
2023-03-19T16:00:56.415Z,0.75
2023-03-19T16:03:32.839Z,0.80
2023-03-19T16:06:04.005Z,0.60
2023-03-19T16:08:34.407Z,0.82
2023-03-19T16:11:28.066Z,0.80
2023-03-19T16:14:05.212Z,1.17
2023-03-19T16:16:34.663Z,1.00
2023-03-19T16:19:03.588Z,1.27
2023-03-19T16:21:39.155Z,0.90
2023-03-19T16:24:18.370Z,1.10
2023-03-19T16:26:50.749Z,1.00
2023-03-19T16:29:28.012Z,0.88
2023-03-19T16:32:01.598Z,0.70
2023-03-19T16:34:38.513Z,1.00
2023-03-19T16:37:28.513Z,0.73
2023-03-19T16:39:59.090Z,0.60
2023-03-19T16:42:41.451Z,0.60
2023-03-19T16:45:22.005Z,0.68
2023-03-19T16:47:54.660Z,1.10
2023-03-19T16:50:25.434Z,2.58
2023-03-19T16:52:56.272Z,1.10
2023-03-19T16:55:31.799Z,1.15
2023-03-19T16:58:02.870Z,1.02
2023-03-19T17:00:34.930Z,1.13
2023-03-19T17:03:03.026Z,1.20
2023-03-19T17:05:31.637Z,0.95
2023-03-19T17:08:01.246Z,1.10
2023-03-19T17:10:31.872Z,1.13
2023-03-19T17:13:02.788Z,1.17
2023-03-19T17:15:38.171Z,1.05
2023-03-19T17:18:13.963Z,1.25
2023-03-19T17:20:51.521Z,1.80
2023-03-19T17:23:24.208Z,1.30
2023-03-19T17:25:54.309Z,2.10
2023-03-19T17:28:24.359Z,1.63
2023-03-19T17:30:54.231Z,1.40
2023-03-19T17:33:27.592Z,11.40
2023-03-19T17:35:57.612Z,1.92
2023-03-19T17:38:32.591Z,1.30
2023-03-19T17:41:01.965Z,1.20
2023-03-19T17:43:30.155Z,1.33
2023-03-19T17:45:59.788Z,1.88
2023-03-19T17:48:30.885Z,2.10
2023-03-19T17:51:02.670Z,2.22
2023-03-19T17:53:33.016Z,2.15
2023-03-19T17:56:01.325Z,1.30
2023-03-19T17:58:30.765Z,3.40
2023-03-19T18:01:01.471Z,2.60
2023-03-19T18:03:35.058Z,1.60
2023-03-19T18:06:07.734Z,1.67
2023-03-19T18:08:35.960Z,1.52
2023-03-19T18:11:04.395Z,1.20
2023-03-19T18:13:32.598Z,1.40
2023-03-19T18:16:05.349Z,2.10
2023-03-19T18:18:34.984Z,2.08
2023-03-19T18:21:03.537Z,1.85
2023-03-19T18:23:31.784Z,3.28
2023-03-19T18:25:59.733Z,6.03
2023-03-19T18:28:30.139Z,7.00
2023-03-19T18:31:01.583Z,5.35
2023-03-19T18:33:32.748Z,3.55
2023-03-19T18:36:03.555Z,2.38
2023-03-19T18:38:32.798Z,1.50
2023-03-19T18:41:03.151Z,1.52
2023-03-19T18:43:32.172Z,2.10
2023-03-19T18:46:03.450Z,3.78
2023-03-19T18:48:32.954Z,3.45
2023-03-19T18:51:01.724Z,2.60
2023-03-19T18:53:30.846Z,1.92
2023-03-19T18:55:59.368Z,1.67
2023-03-19T18:58:29.561Z,1.70
2023-03-19T19:01:01.741Z,2.97
2023-03-19T19:03:33.900Z,4.27
2023-03-19T19:06:01.832Z,2.30
2023-03-19T19:08:30.017Z,2.17
2023-03-19T19:11:02.113Z,2.28
2023-03-19T19:13:46.329Z,1.77
2023-03-19T19:16:20.300Z,1.90
2023-03-19T19:18:49.887Z,2.08
2023-03-19T19:21:20.293Z,2.22
2023-03-19T19:23:48.302Z,1.83
2023-03-19T19:26:24.337Z,1.95
2023-03-19T19:28:54.249Z,2.00
2023-03-19T19:31:26.411Z,1.85
2023-03-19T19:33:59.782Z,2.13
2023-03-19T19:36:29.110Z,1.95
2023-03-19T19:38:58.689Z,2.00
2023-03-19T19:41:31.305Z,2.00
2023-03-19T19:44:03.501Z,2.28
2023-03-19T19:46:34.445Z,2.30
2023-03-19T19:49:03.942Z,1.80
2023-03-19T19:51:32.028Z,2.20
2023-03-19T19:54:00.955Z,3.45
2023-03-19T19:56:30.736Z,3.75
2023-03-19T19:58:59.958Z,3.67
2023-03-19T20:01:28.416Z,2.70
2023-03-19T20:03:58.517Z,2.80
2023-03-19T20:06:28.718Z,2.80
2023-03-19T20:08:56.554Z,2.97
2023-03-19T20:11:25.917Z,2.70
2023-03-19T20:13:56.603Z,2.67
2023-03-19T20:16:26.737Z,2.58
2023-03-19T20:18:55.473Z,2.63
2023-03-19T20:21:25.659Z,2.63
2023-03-19T20:23:56.536Z,4.35
2023-03-19T20:26:25.389Z,6.28
2023-03-19T20:28:54.415Z,3.35
2023-03-19T20:31:27.592Z,2.70
2023-03-19T20:33:55.866Z,2.92
2023-03-19T20:36:24.136Z,3.00
2023-03-19T20:38:52.634Z,3.50
2023-03-19T20:41:24.454Z,3.42
2023-03-19T20:43:54.758Z,4.78
2023-03-19T20:46:24.950Z,3.95
2023-03-19T20:48:53.128Z,3.80
2023-03-19T20:51:24.761Z,4.32
2023-03-19T20:53:54.069Z,5.18
2023-03-19T20:56:29.292Z,4.50
2023-03-19T20:58:57.637Z,3.90
2023-03-19T21:01:26.604Z,3.85
2023-03-19T21:03:56.119Z,3.78
2023-03-19T21:06:25.921Z,4.57
2023-03-19T21:08:59.871Z,4.50
2023-03-19T21:11:39.044Z,5.05
2023-03-19T21:14:08.006Z,4.75
2023-03-19T21:16:36.583Z,5.28
2023-03-19T21:19:05.495Z,5.20
2023-03-19T21:21:36.434Z,5.22
2023-03-19T21:24:08.581Z,5.50
2023-03-19T21:26:41.107Z,4.77
2023-03-19T21:29:16.961Z,4.95
2023-03-19T21:31:46.362Z,4.78
2023-03-19T21:34:15.926Z,4.97
2023-03-19T21:36:44.140Z,6.47
2023-03-19T21:39:12.179Z,6.45
2023-03-19T21:41:42.704Z,7.00
2023-03-19T21:44:14.144Z,7.88
2023-03-19T21:46:42.887Z,7.68
2023-03-19T21:49:13.125Z,7.65
2023-03-19T21:51:42.663Z,8.07
2023-03-19T21:54:11.394Z,7.65
2023-03-19T21:56:44.403Z,8.77
2023-03-19T21:59:18.070Z,8.32
2023-03-19T22:01:46.631Z,7.68
2023-03-19T22:04:15.311Z,7.70
2023-03-19T22:06:45.767Z,8.02
2023-03-19T22:09:14.563Z,7.18
2023-03-19T22:11:46.439Z,7.68
2023-03-19T22:14:17.863Z,7.78
2023-03-19T22:16:47.165Z,7.32
2023-03-19T22:19:16.412Z,8.18
2023-03-19T22:21:45.440Z,7.05
2023-03-19T22:24:14.911Z,7.18
2023-03-19T22:26:46.623Z,7.68
2023-03-19T22:29:17.638Z,6.93
2023-03-19T22:31:46.280Z,6.40
2023-03-19T22:34:17.583Z,6.85
2023-03-19T22:36:46.484Z,5.30
2023-03-19T22:39:14.830Z,4.60
2023-03-19T22:41:48.141Z,5.30
2023-03-19T22:44:24.460Z,4.55
2023-03-19T22:46:53.019Z,6.43
2023-03-19T22:49:20.975Z,7.20
2023-03-19T22:51:49.152Z,6.70
2023-03-19T22:54:17.654Z,6.13
2023-03-19T22:56:48.037Z,5.68
2023-03-19T22:59:16.180Z,5.45
2023-03-19T23:01:46.332Z,4.00
2023-03-19T23:04:23.133Z,5.50
2023-03-19T23:06:53.448Z,5.75
2023-03-19T23:09:24.665Z,5.32
2023-03-19T23:11:55.125Z,5.22
2023-03-19T23:14:29.967Z,4.85
2023-03-19T23:17:00.850Z,4.97
2023-03-19T23:19:31.811Z,4.60
2023-03-19T23:22:02.774Z,4.57
2023-03-19T23:24:32.091Z,4.30
2023-03-19T23:27:02.472Z,4.00
2023-03-19T23:29:33.012Z,3.72
2023-03-19T23:32:01.733Z,3.60
2023-03-19T23:34:30.291Z,2.97
2023-03-19T23:36:59.967Z,3.30
2023-03-19T23:39:28.861Z,3.65
2023-03-19T23:42:00.682Z,3.00
2023-03-19T23:44:33.630Z,2.65
2023-03-19T23:47:03.266Z,2.90
2023-03-19T23:49:33.328Z,3.22
2023-03-19T23:52:03.613Z,2.80
2023-03-19T23:54:35.264Z,2.78
2023-03-19T23:57:06.681Z,3.55
2023-03-19T23:59:37.822Z,3.17
